Hlavní strana
METAR-TAF:

METAR-TAF

Letiště :

Norimberk, Německo

zeměpisná šířka: 49-30N, zeměpisná délka: 011-03E, výška: 318 m

Aktuální stav počasí

Zpráva byla vytvořena před 9 minutami, v 20:50 UTC
Západoseverozápadní vítr 2 kt
Teplota 23°C
Vlhkost vzduchu 50%
Tlak 1019 hPa
Viditelnost 10 km a více
Žádná oblačnost pod 1500 m, nevyskytují se cumulonimby.

METAR: EDDN 192050Z 30002KT CAVOK 23/12 Q1019

Čas: 22:59 (20:59 UTC)

Předpověď počasí

Zpráva byla vytvořena před 3 hodinami a 59 minutami, v 17:00 UTC
Předpověď platná od 19 v 18 UTC do 20 v 18 UTC
Severozápadní vítr 5 kt
Viditelnost 10 km a více
Žádná oblačnost pod 1500 m, nevyskytují se cumulonimby.
Změna
od 19 v 18 UTC do 19 v 20 UTC
vítr z různých směrů 3 kt
Změna
od 20 v 07 UTC do 20 v 09 UTC
Západní vítr 8 kt

TAF: EDDN 191700Z 1918/2018 31005KT CAVOK BECMG 1918/1920 VRB03KT BECMG 2007/2009 28008KT

Stav a předpovědi počasí z více než 4 000 letišť (zprávy METAR a TAF).

Červené a žluté tečky na mapě představují dostupné meteorologické stanice.

Když kurzor umístíte na tečku, zobrazí se název stanice.

Pak kliknutím zobrazíte stav a předpověď počasí.

Chcete-li změnit mapu, kliknutím na zelené tlačítko se znaménkem +mapu přiblížíte, kliknutím na zelené tlačítko se znaménkem – mapu oddálíte a kliknutím na zelené šipky přejdete na sousední mapy.


METAR-TAF: